Griffing, Texas
Current Conditions -  °F | °C
As of 1:53 PM on Monday 22 Dec 2014 (Local Time) from KBPT Reporting Station
Clear Clear  
Wind Chill: 74°   Ceiling: Unl
Heat Index: 74°   Visibility: 10mi
Dew Point: 61°   Wind: 21mph
Humidity: 64%   Direction: 230°SW
Pressure: 29.64"   Gusts: 28mph
Location:  29.7569°N, 94.1898°W
Report Text: KBPT 221953Z 23018G24KT 10SM CLR 23/16 A2964 RMK AO2 PK WND 21027/1938 RAE53 SLP038 P0000 T02330161
Loading
Personal Weather Stations






























Interactive Weather Map New forecast layout! Learn more

10-Day Weather Forecast

Advertisements
Track Severe Weather on mobile